createdAt,value
2022-09-28T00:01:15.114Z,3.15
2022-09-28T00:03:41.774Z,3.43
2022-09-28T00:06:12.308Z,3.03
2022-09-28T00:08:39.134Z,3.38
2022-09-28T00:11:07.464Z,3.03
2022-09-28T00:13:35.244Z,3.08
2022-09-28T00:16:07.275Z,3.50
2022-09-28T00:18:35.440Z,2.92
2022-09-28T00:21:13.674Z,2.95
2022-09-28T00:24:00.296Z,3.47
2022-09-28T00:26:28.885Z,2.97
2022-09-28T00:29:00.899Z,2.97
2022-09-28T00:31:32.835Z,3.63
2022-09-28T00:34:01.513Z,3.55
2022-09-28T00:36:30.691Z,3.47
2022-09-28T00:38:58.496Z,3.22
2022-09-28T00:41:27.614Z,3.42
2022-09-28T00:44:15.131Z,3.05
2022-09-28T00:46:42.031Z,3.45
2022-09-28T00:49:15.709Z,4.13
2022-09-28T00:51:44.808Z,3.03
2022-09-28T00:54:12.853Z,3.40
2022-09-28T00:56:42.455Z,3.30
2022-09-28T00:59:09.433Z,3.30
2022-09-28T01:01:37.248Z,3.58
2022-09-28T01:04:04.983Z,3.22
2022-09-28T01:06:34.700Z,4.07
2022-09-28T01:09:07.364Z,3.65
2022-09-28T01:11:37.172Z,3.50
2022-09-28T01:14:08.734Z,3.10
2022-09-28T01:16:41.477Z,3.45
2022-09-28T01:19:44.603Z,3.30
2022-09-28T01:22:57.037Z,2.78
2022-09-28T01:25:41.935Z,3.78
2022-09-28T01:28:15.502Z,2.92
2022-09-28T01:31:03.436Z,3.33
2022-09-28T01:33:38.343Z,3.53
2022-09-28T01:36:09.664Z,2.50
2022-09-28T01:38:53.221Z,3.20
2022-09-28T01:41:22.484Z,3.53
2022-09-28T01:43:55.035Z,3.65
2022-09-28T01:46:27.469Z,3.28
2022-09-28T01:49:02.682Z,3.20
2022-09-28T01:51:43.197Z,2.95
2022-09-28T01:54:13.483Z,3.20
2022-09-28T01:56:45.070Z,3.28
2022-09-28T01:59:14.369Z,3.08
2022-09-28T02:01:45.874Z,3.25
2022-09-28T02:04:18.648Z,3.05
2022-09-28T02:06:53.641Z,3.65
2022-09-28T02:09:48.000Z,3.05
2022-09-28T02:12:32.503Z,3.38
2022-09-28T02:15:10.614Z,3.38
2022-09-28T02:17:37.445Z,3.40
2022-09-28T02:20:04.646Z,3.80
2022-09-28T02:22:43.006Z,3.65
2022-09-28T02:25:13.918Z,3.20
2022-09-28T02:27:48.112Z,4.40
2022-09-28T02:30:14.757Z,3.30
2022-09-28T02:32:48.608Z,3.70
2022-09-28T02:35:17.519Z,3.67
2022-09-28T02:37:45.146Z,4.03
2022-09-28T02:40:22.029Z,3.42
2022-09-28T02:42:48.607Z,3.00
2022-09-28T02:46:02.256Z,3.20
2022-09-28T02:49:10.507Z,3.65
2022-09-28T02:52:14.141Z,3.47
2022-09-28T02:54:46.573Z,3.20
2022-09-28T02:57:25.011Z,3.00
2022-09-28T03:00:21.337Z,3.85
2022-09-28T03:03:05.311Z,3.30
2022-09-28T03:06:10.545Z,3.22
2022-09-28T03:08:48.564Z,3.70
2022-09-28T03:11:20.628Z,3.20
2022-09-28T03:13:47.758Z,3.78
2022-09-28T03:16:17.960Z,4.15
2022-09-28T03:18:45.512Z,3.63
2022-09-28T03:21:13.335Z,3.75
2022-09-28T03:23:40.663Z,3.55
2022-09-28T03:26:13.749Z,3.25
2022-09-28T03:28:41.234Z,3.70
2022-09-28T03:31:08.047Z,2.90
2022-09-28T03:33:34.970Z,3.40
2022-09-28T03:36:01.827Z,3.50
2022-09-28T03:38:28.482Z,3.80
2022-09-28T03:40:59.565Z,3.90
2022-09-28T03:43:27.231Z,3.47
2022-09-28T03:46:03.264Z,3.47
2022-09-28T03:48:33.201Z,3.60
2022-09-28T03:51:02.520Z,3.58
2022-09-28T03:53:32.673Z,3.45
2022-09-28T03:56:14.268Z,2.55
2022-09-28T03:58:40.985Z,3.50
2022-09-28T04:01:14.158Z,3.08
2022-09-28T04:03:43.794Z,3.72
2022-09-28T04:06:10.905Z,3.72
2022-09-28T04:08:37.404Z,3.28
2022-09-28T04:11:03.951Z,3.70
2022-09-28T04:13:31.154Z,3.15
2022-09-28T04:16:00.271Z,3.88
2022-09-28T04:18:27.128Z,3.53
2022-09-28T04:21:06.875Z,4.03
2022-09-28T04:23:35.483Z,3.42
2022-09-28T04:26:04.055Z,3.80
2022-09-28T04:28:49.511Z,4.20
2022-09-28T04:31:19.455Z,3.47
2022-09-28T04:33:46.440Z,4.78
2022-09-28T04:36:13.712Z,4.05
2022-09-28T04:38:52.706Z,3.53
2022-09-28T04:41:24.809Z,4.05
2022-09-28T04:43:52.559Z,3.35
2022-09-28T04:46:19.448Z,3.63
2022-09-28T04:48:45.997Z,3.92
2022-09-28T04:51:14.225Z,4.35
2022-09-28T04:53:40.817Z,4.40
2022-09-28T04:56:12.913Z,4.53
2022-09-28T04:58:40.331Z,3.72
2022-09-28T05:01:10.826Z,4.90
2022-09-28T05:03:37.931Z,3.80
2022-09-28T05:06:07.032Z,5.38
2022-09-28T05:08:35.264Z,4.35
2022-09-28T05:11:04.672Z,5.43
2022-09-28T05:13:32.645Z,4.68
2022-09-28T05:16:04.436Z,4.90
2022-09-28T05:18:32.269Z,4.55
2022-09-28T05:20:58.964Z,4.45
2022-09-28T05:23:25.495Z,4.93
2022-09-28T05:25:52.155Z,4.43
2022-09-28T05:28:26.258Z,4.65
2022-09-28T05:30:53.275Z,4.60
2022-09-28T05:33:20.599Z,5.50
2022-09-28T05:35:52.489Z,4.85
2022-09-28T05:38:20.714Z,5.05
2022-09-28T05:40:47.433Z,5.32
2022-09-28T05:43:14.311Z,5.03
2022-09-28T05:45:40.995Z,5.07
2022-09-28T05:48:07.514Z,4.97
2022-09-28T05:50:51.182Z,5.45
2022-09-28T05:53:17.849Z,5.30
2022-09-28T05:55:44.458Z,5.13
2022-09-28T05:58:11.365Z,5.50
2022-09-28T06:00:40.080Z,5.25
2022-09-28T06:03:10.398Z,5.97
2022-09-28T06:05:38.789Z,5.90
2022-09-28T06:08:07.311Z,6.00
2022-09-28T06:10:34.529Z,5.90
2022-09-28T06:13:01.471Z,5.40
2022-09-28T06:15:30.807Z,5.68
2022-09-28T06:17:59.306Z,6.47
2022-09-28T06:20:27.705Z,5.40
2022-09-28T06:22:54.858Z,5.80
2022-09-28T06:25:23.200Z,6.30
2022-09-28T06:28:03.304Z,5.70
2022-09-28T06:30:32.076Z,6.57
2022-09-28T06:33:00.011Z,6.88
2022-09-28T06:35:28.680Z,6.97
2022-09-28T06:37:55.313Z,6.75
2022-09-28T06:40:23.338Z,6.63
2022-09-28T06:43:09.940Z,6.93
2022-09-28T06:45:37.679Z,7.28
2022-09-28T06:48:05.352Z,6.25
2022-09-28T06:50:35.986Z,7.18
2022-09-28T06:53:03.216Z,8.55
2022-09-28T06:55:30.005Z,7.72
2022-09-28T06:57:59.153Z,7.47
2022-09-28T07:00:31.258Z,7.00
2022-09-28T07:02:57.953Z,8.95
2022-09-28T07:05:27.448Z,8.20
2022-09-28T07:07:55.332Z,7.47
2022-09-28T07:10:23.898Z,8.05
2022-09-28T07:12:54.943Z,8.23
2022-09-28T07:15:21.924Z,8.25
2022-09-28T07:17:59.860Z,8.13
2022-09-28T07:20:29.089Z,8.38
2022-09-28T07:22:58.746Z,7.05
2022-09-28T07:25:32.397Z,6.85
2022-09-28T07:27:59.873Z,7.80
2022-09-28T07:30:28.207Z,8.15
2022-09-28T07:32:55.178Z,6.68
2022-09-28T07:35:22.565Z,6.43
2022-09-28T07:37:49.726Z,6.93
2022-09-28T07:40:34.763Z,8.15
2022-09-28T07:43:07.512Z,8.63
2022-09-28T07:45:36.693Z,8.32
2022-09-28T07:48:03.868Z,8.30
2022-09-28T07:50:30.915Z,8.65
2022-09-28T07:52:58.183Z,9.15
2022-09-28T07:55:25.242Z,7.93
2022-09-28T07:58:01.689Z,9.57
2022-09-28T08:00:33.965Z,9.70
2022-09-28T08:03:02.411Z,10.60
2022-09-28T08:05:32.170Z,10.55
2022-09-28T08:07:59.802Z,9.68
2022-09-28T08:10:26.829Z,10.45
2022-09-28T08:13:08.800Z,11.23
2022-09-28T08:15:37.122Z,9.48
2022-09-28T08:18:07.085Z,9.50
2022-09-28T08:20:53.119Z,9.32
2022-09-28T08:23:20.580Z,9.02
2022-09-28T08:25:52.596Z,10.25
2022-09-28T08:28:20.000Z,8.45
2022-09-28T08:30:47.442Z,8.93
2022-09-28T08:33:15.733Z,9.13
2022-09-28T08:35:42.322Z,8.93
2022-09-28T08:38:10.145Z,8.15
2022-09-28T08:40:55.624Z,8.15
2022-09-28T08:43:41.448Z,8.80
2022-09-28T08:46:11.357Z,7.30
2022-09-28T08:49:13.444Z,8.63
2022-09-28T08:51:44.001Z,10.55
2022-09-28T08:54:36.823Z,10.18
2022-09-28T08:57:15.564Z,11.48
2022-09-28T08:59:48.879Z,9.68
2022-09-28T09:02:22.497Z,10.38
2022-09-28T09:04:51.676Z,10.60
2022-09-28T09:07:45.968Z,13.20
2022-09-28T09:10:28.601Z,10.65
2022-09-28T09:13:14.943Z,10.60
2022-09-28T09:15:55.221Z,13.10
2022-09-28T09:18:37.234Z,12.45
2022-09-28T09:21:15.688Z,14.68
2022-09-28T09:23:51.622Z,14.40
2022-09-28T09:26:24.999Z,13.85
2022-09-28T09:29:14.478Z,13.10
2022-09-28T09:31:53.171Z,12.55
2022-09-28T09:34:25.638Z,11.30
2022-09-28T09:37:08.379Z,10.38
2022-09-28T09:39:51.339Z,10.10
2022-09-28T09:42:33.912Z,8.13
2022-09-28T09:45:39.782Z,7.85
2022-09-28T09:48:40.244Z,7.88
2022-09-28T09:51:18.173Z,7.57
2022-09-28T09:54:10.459Z,7.97
2022-09-28T09:56:45.435Z,6.90
2022-09-28T09:59:15.895Z,5.78
2022-09-28T10:01:42.832Z,6.32
2022-09-28T10:04:20.590Z,5.45
2022-09-28T10:06:49.880Z,4.95
2022-09-28T10:09:39.636Z,5.90
2022-09-28T10:12:11.136Z,5.05
2022-09-28T10:14:37.953Z,4.70
2022-09-28T10:17:05.349Z,4.60
2022-09-28T10:19:34.023Z,4.22
2022-09-28T10:22:04.002Z,4.43
2022-09-28T10:24:35.401Z,4.22
2022-09-28T10:27:08.071Z,4.65
2022-09-28T10:29:42.352Z,4.70
2022-09-28T10:32:26.748Z,4.43
2022-09-28T10:35:11.004Z,4.70
2022-09-28T10:37:56.483Z,4.68
2022-09-28T10:40:31.951Z,4.65
2022-09-28T10:43:33.794Z,4.53
2022-09-28T10:46:07.988Z,5.07
2022-09-28T10:48:57.862Z,4.07
2022-09-28T10:51:46.669Z,4.93
2022-09-28T10:54:19.012Z,4.72
2022-09-28T10:56:46.130Z,5.25
2022-09-28T10:59:31.549Z,4.28
2022-09-28T11:02:02.752Z,5.10
2022-09-28T11:04:39.084Z,4.20
2022-09-28T11:07:18.744Z,3.33
2022-09-28T11:09:51.792Z,2.03
2022-09-28T11:12:24.993Z,3.13
2022-09-28T11:15:09.835Z,3.60
2022-09-28T11:17:38.916Z,2.10
2022-09-28T11:20:38.878Z,2.10
2022-09-28T11:23:23.135Z,1.73
2022-09-28T11:26:06.619Z,1.40
2022-09-28T11:28:38.364Z,1.80
2022-09-28T11:31:08.089Z,1.60
2022-09-28T11:33:48.176Z,1.77
2022-09-28T11:36:14.620Z,2.08
2022-09-28T11:38:47.504Z,2.10
2022-09-28T11:41:51.760Z,1.75
2022-09-28T11:44:20.886Z,2.42
2022-09-28T11:46:53.840Z,1.23
2022-09-28T11:49:20.268Z,1.85
2022-09-28T11:51:50.800Z,1.50
2022-09-28T11:54:33.702Z,1.70
2022-09-28T11:57:04.337Z,1.92
2022-09-28T11:59:38.806Z,0.98
2022-09-28T12:02:29.989Z,1.80
2022-09-28T12:05:33.513Z,1.52
2022-09-28T12:08:13.463Z,1.58
2022-09-28T12:10:55.467Z,1.40
2022-09-28T12:13:33.019Z,1.40
2022-09-28T12:18:57.510Z,2.13
2022-09-28T12:21:45.518Z,1.40
2022-09-28T12:24:28.657Z,1.73
2022-09-28T12:27:10.467Z,1.60
2022-09-28T12:29:47.608Z,2.05
2022-09-28T12:32:35.718Z,1.75
2022-09-28T12:35:03.374Z,1.60
2022-09-28T12:38:01.438Z,1.63
2022-09-28T12:40:57.707Z,1.65
2022-09-28T12:43:28.999Z,1.50
2022-09-28T12:46:18.814Z,1.27
2022-09-28T12:49:51.535Z,1.38
2022-09-28T12:51:57.672Z,1.65
2022-09-28T12:55:03.979Z,1.25
2022-09-28T12:57:45.109Z,1.27
2022-09-28T13:00:16.045Z,1.27
2022-09-28T13:02:49.581Z,1.27
2022-09-28T13:05:16.342Z,1.70
2022-09-28T13:08:00.114Z,1.27
2022-09-28T13:10:33.826Z,1.27
2022-09-28T13:13:19.079Z,1.10
2022-09-28T13:15:48.539Z,1.38
2022-09-28T13:18:44.558Z,1.08
2022-09-28T13:21:34.689Z,1.77
2022-09-28T13:24:27.931Z,1.23
2022-09-28T13:26:56.926Z,1.40
2022-09-28T13:29:27.529Z,0.82
2022-09-28T13:31:58.171Z,1.30
2022-09-28T13:34:32.026Z,1.20
2022-09-28T13:37:17.024Z,1.65
2022-09-28T13:39:52.206Z,1.50
2022-09-28T13:42:53.085Z,1.67
2022-09-28T13:45:22.912Z,1.10
2022-09-28T13:48:00.270Z,1.67
2022-09-28T13:51:04.445Z,1.02
2022-09-28T13:53:37.145Z,1.27
2022-09-28T13:56:23.392Z,1.23
2022-09-28T13:59:15.844Z,1.20
2022-09-28T14:01:56.384Z,1.55
2022-09-28T14:04:45.272Z,1.47
2022-09-28T14:10:44.524Z,1.23
2022-09-28T14:13:12.175Z,1.40
2022-09-28T14:15:42.285Z,1.30
2022-09-28T14:18:19.189Z,1.33
2022-09-28T14:21:29.436Z,1.50
2022-09-28T14:24:20.299Z,1.40
2022-09-28T14:26:53.216Z,2.00
2022-09-28T14:29:30.150Z,1.55
2022-09-28T14:32:03.557Z,1.95
2022-09-28T14:34:34.371Z,1.60
2022-09-28T14:37:22.064Z,2.20
2022-09-28T14:40:07.697Z,1.65
2022-09-28T14:42:34.317Z,1.52
2022-09-28T14:45:06.607Z,1.40
2022-09-28T14:47:37.903Z,1.60
2022-09-28T14:50:27.684Z,1.58
2022-09-28T14:52:57.120Z,1.50
2022-09-28T14:55:40.800Z,1.10
2022-09-28T14:58:19.041Z,1.70
2022-09-28T15:00:47.240Z,2.10
2022-09-28T15:03:14.767Z,1.60
2022-09-28T15:05:49.831Z,1.40
2022-09-28T15:08:21.027Z,1.58
2022-09-28T15:10:50.716Z,1.67
2022-09-28T15:13:28.562Z,1.17
2022-09-28T15:16:03.695Z,1.80
2022-09-28T15:19:04.648Z,1.40
2022-09-28T15:21:36.971Z,1.80
2022-09-28T15:24:03.708Z,1.67
2022-09-28T15:26:34.240Z,1.35
2022-09-28T15:29:04.268Z,1.30
2022-09-28T15:31:35.726Z,1.25
2022-09-28T15:36:47.732Z,1.42
2022-09-28T15:39:20.919Z,1.10
2022-09-28T15:41:50.327Z,1.00
2022-09-28T15:44:37.242Z,1.25
2022-09-28T15:47:23.919Z,1.20
2022-09-28T15:49:58.669Z,0.98
2022-09-28T15:52:28.427Z,1.40
2022-09-28T15:54:55.590Z,1.25
2022-09-28T15:57:40.029Z,1.55
2022-09-28T16:00:24.695Z,1.52
2022-09-28T16:03:20.795Z,1.40
2022-09-28T16:05:57.920Z,1.88
2022-09-28T16:08:36.518Z,1.80
2022-09-28T16:11:16.850Z,1.90
2022-09-28T16:14:06.204Z,1.73
2022-09-28T16:16:43.291Z,1.65
2022-09-28T16:19:24.307Z,1.50
2022-09-28T16:21:59.431Z,1.73
2022-09-28T16:24:31.759Z,2.05
2022-09-28T16:27:02.920Z,1.80
2022-09-28T16:29:41.428Z,1.67
2022-09-28T16:32:35.304Z,1.65
2022-09-28T16:35:19.700Z,2.13
2022-09-28T16:37:49.789Z,1.95
2022-09-28T16:40:16.669Z,1.45
2022-09-28T16:42:48.836Z,1.60
2022-09-28T16:45:27.906Z,1.75
2022-09-28T16:47:58.453Z,2.75
2022-09-28T16:50:25.742Z,2.37
2022-09-28T16:53:34.899Z,1.90
2022-09-28T16:56:03.018Z,2.08
2022-09-28T16:58:31.572Z,2.35
2022-09-28T17:03:33.196Z,1.48
2022-09-28T17:06:04.786Z,1.42
2022-09-28T17:11:24.739Z,2.47
2022-09-28T17:13:52.519Z,1.90
2022-09-28T17:16:36.750Z,2.28
2022-09-28T17:19:18.612Z,1.60
2022-09-28T17:21:45.783Z,1.75
2022-09-28T17:24:12.380Z,1.40
2022-09-28T17:26:40.240Z,1.85
2022-09-28T17:29:09.856Z,1.52
2022-09-28T17:31:36.350Z,1.35
2022-09-28T17:34:03.182Z,1.95
2022-09-28T17:36:30.472Z,1.40
2022-09-28T17:38:57.349Z,1.63
2022-09-28T17:41:24.246Z,1.58
2022-09-28T17:43:50.961Z,1.58
2022-09-28T17:46:34.203Z,1.60
2022-09-28T17:49:03.050Z,1.25
2022-09-28T17:51:32.367Z,1.35
2022-09-28T17:54:01.006Z,1.20
2022-09-28T17:56:32.125Z,1.73
2022-09-28T18:01:30.163Z,1.92
2022-09-28T18:03:56.903Z,1.67
2022-09-28T18:06:23.889Z,1.80
2022-09-28T18:08:50.574Z,1.73
2022-09-28T18:11:21.046Z,1.40
2022-09-28T18:13:47.684Z,1.77
2022-09-28T18:16:14.777Z,1.70
2022-09-28T18:18:42.834Z,1.98
2022-09-28T18:21:09.712Z,1.80
2022-09-28T18:23:38.351Z,2.22
2022-09-28T18:26:19.022Z,2.20
2022-09-28T18:28:47.043Z,2.10
2022-09-28T18:31:15.708Z,2.40
2022-09-28T18:33:44.200Z,2.40
2022-09-28T18:36:10.949Z,3.88
2022-09-28T18:38:38.524Z,2.50
2022-09-28T18:41:16.519Z,2.00
2022-09-28T18:43:49.059Z,2.30
2022-09-28T18:46:23.263Z,1.95
2022-09-28T18:48:53.246Z,2.53
2022-09-28T18:51:21.889Z,2.28
2022-09-28T18:53:48.558Z,2.13
2022-09-28T18:56:18.306Z,1.67
2022-09-28T18:58:46.313Z,2.22
2022-09-28T19:01:29.958Z,2.85
2022-09-28T19:04:02.069Z,2.38
2022-09-28T19:06:30.047Z,2.60
2022-09-28T19:08:58.428Z,2.17
2022-09-28T19:11:25.672Z,2.25
2022-09-28T19:13:54.709Z,2.22
2022-09-28T19:16:26.210Z,2.30
2022-09-28T19:18:53.770Z,2.50
2022-09-28T19:21:21.071Z,2.45
2022-09-28T19:23:49.944Z,1.75
2022-09-28T19:26:22.752Z,2.05
2022-09-28T19:28:50.393Z,2.10
2022-09-28T19:31:18.052Z,2.40
2022-09-28T19:33:46.362Z,1.95
2022-09-28T19:36:24.020Z,2.05
2022-09-28T19:39:03.508Z,2.30
2022-09-28T19:41:44.336Z,2.30
2022-09-28T19:44:25.391Z,2.00
2022-09-28T19:47:12.857Z,2.20
2022-09-28T19:49:40.846Z,1.88
2022-09-28T19:52:16.386Z,1.80
2022-09-28T19:54:45.141Z,1.95
2022-09-28T19:57:19.641Z,2.00
2022-09-28T19:59:52.519Z,2.30
2022-09-28T20:02:21.424Z,2.10
2022-09-28T20:04:48.724Z,1.85
2022-09-28T20:07:15.622Z,1.60
2022-09-28T20:09:43.789Z,1.83
2022-09-28T20:12:11.238Z,1.85
2022-09-28T20:14:40.106Z,1.65
2022-09-28T20:17:07.454Z,1.70
2022-09-28T20:19:35.164Z,1.33
2022-09-28T20:22:03.182Z,1.80
2022-09-28T20:24:31.272Z,1.15
2022-09-28T20:26:58.434Z,1.25
2022-09-28T20:29:25.282Z,1.58
2022-09-28T20:31:52.292Z,1.35
2022-09-28T20:34:20.247Z,1.73
2022-09-28T20:36:48.831Z,1.30
2022-09-28T20:39:16.838Z,1.70
2022-09-28T20:41:43.880Z,1.70
2022-09-28T20:44:14.336Z,1.50
2022-09-28T20:46:45.593Z,1.10
2022-09-28T20:49:13.059Z,1.50
2022-09-28T20:51:43.169Z,1.27
2022-09-28T20:54:10.036Z,1.20
2022-09-28T20:56:39.191Z,1.27
2022-09-28T20:59:14.984Z,1.30
2022-09-28T21:01:43.743Z,1.40
2022-09-28T21:04:12.707Z,1.27
2022-09-28T21:06:42.230Z,1.27
2022-09-28T21:09:13.370Z,1.50
2022-09-28T21:11:40.486Z,1.58
2022-09-28T21:14:10.639Z,1.55
2022-09-28T21:16:39.820Z,1.48
2022-09-28T21:19:08.344Z,1.80
2022-09-28T21:21:39.621Z,2.65
2022-09-28T21:24:06.819Z,1.50
2022-09-28T21:26:37.048Z,1.80
2022-09-28T21:29:12.385Z,1.63
2022-09-28T21:31:47.093Z,1.63
2022-09-28T21:34:21.848Z,1.80
2022-09-28T21:36:51.665Z,2.38
2022-09-28T21:39:21.950Z,1.88
2022-09-28T21:41:52.370Z,2.58
2022-09-28T21:44:19.072Z,2.22
2022-09-28T21:46:48.522Z,2.03
2022-09-28T21:49:15.965Z,1.88
2022-09-28T21:51:44.971Z,2.55
2022-09-28T21:54:15.597Z,1.98
2022-09-28T21:56:47.494Z,1.90
2022-09-28T21:59:14.058Z,1.83
2022-09-28T22:01:42.688Z,2.10
2022-09-28T22:04:10.861Z,1.67
2022-09-28T22:06:40.014Z,1.65
2022-09-28T22:09:08.133Z,1.63
2022-09-28T22:11:36.948Z,2.30
2022-09-28T22:14:03.725Z,1.85
2022-09-28T22:16:32.133Z,2.10
2022-09-28T22:19:16.252Z,2.90
2022-09-28T22:21:45.613Z,2.60
2022-09-28T22:24:14.154Z,2.72
2022-09-28T22:26:42.605Z,4.05
2022-09-28T22:29:13.184Z,4.30
2022-09-28T22:31:42.030Z,4.78
2022-09-28T22:34:14.973Z,6.18
2022-09-28T22:36:55.149Z,6.57
2022-09-28T22:39:24.652Z,6.93
2022-09-28T22:41:54.894Z,6.82
2022-09-28T22:44:24.107Z,7.70
2022-09-28T22:46:55.661Z,7.47
2022-09-28T22:49:29.553Z,8.93
2022-09-28T22:51:56.335Z,7.78
2022-09-28T22:54:29.923Z,8.70
2022-09-28T22:57:00.248Z,8.73
2022-09-28T22:59:27.900Z,7.55
2022-09-28T23:01:58.552Z,8.40
2022-09-28T23:04:27.666Z,8.93
2022-09-28T23:06:54.271Z,8.70
2022-09-28T23:09:20.886Z,8.13
2022-09-28T23:11:47.652Z,8.38
2022-09-28T23:14:14.279Z,8.20
2022-09-28T23:16:41.410Z,8.73
2022-09-28T23:19:08.157Z,9.52
2022-09-28T23:21:34.708Z,8.50
2022-09-28T23:24:01.630Z,8.95
2022-09-28T23:26:31.263Z,8.73
2022-09-28T23:28:59.517Z,9.55
2022-09-28T23:31:28.676Z,9.57
2022-09-28T23:34:06.500Z,10.15
2022-09-28T23:36:34.127Z,8.63
2022-09-28T23:39:01.128Z,9.50
2022-09-28T23:41:28.197Z,9.35
2022-09-28T23:43:54.932Z,9.48
2022-09-28T23:46:21.725Z,10.40
2022-09-28T23:48:49.137Z,9.77
2022-09-28T23:51:15.764Z,10.07
2022-09-28T23:53:43.719Z,10.23
2022-09-28T23:56:10.399Z,10.60
2022-09-28T23:58:37.226Z,10.98
